Etusivu
METAR-TAF:

METAR-TAF

Lentoasemat :

Abilene, Texas, Yhdysvallat

Leveyspiiri: 32-24-37N, Pituuspiiri: 099-40-54W, korkeus merenpinnasta: 545 m

Tämänhetkinen sää

Tämä raportti tehtiin 1 tunti ja 2 minuuttia sitten, kello 03.52 UTC
Tuuli 6 kn kaakosta
Lämpötila 9°C
Kosteus 49%
Ilmanpaine 1026 hPa
Näkyvyys: 16.1 km
selkeää

METAR: KABI 290352Z 14006KT 10SM CLR 09/M01 A3031 RMK AO2 SLP257 T00891011

Aika: 22:54 (04:54 UTC)

Sääennuste

Tämä raportti tehtiin 5 tuntia ja 29 minuuttia sitten, kello 23.25 UTC
Ennuste voimassa 29. päivästä klo 00 UTC - 29. päivään klo 24 UTC
Tuuli 6 kn etelästä/kaakosta
Näkyvyys: 10 km
Muutamia pilviä 25000 ft:n korkeudessa
From 29. päivästä klo 1600 UTC
Tuuli 17 kn etelästä puuskistuen 27 kn:hen
Näkyvyys: 10 km
Hajonneita pilviä 25000 ft:n korkeudessa

TAF: KABI 282325Z 2900/2924 16006KT P6SM FEW250 FM291600 19017G27KT P6SM BKN250

Säähavainnot ja -ennusteet yli 4000 lentoasemalta (METAR- ja TAF-raportit).

Käytössä olevat sääasemat on merkitty karttaan keltaisilla ja punaisilla pisteillä.

Aseta hiiri pisteen päälle nähdäksesi sääaseman nimen.

Klikkaa sitten nähdäksesi säähavainnot ja -ennusteet.

Kartan vaihtaminen: klikkaa mustalla rastilla varustettuja vihreitä pisteitä, niin voit zoomata sisään; viivalla varustettua vihreää pistettä, niin voit zoomata ulos tai vihreitä nuolia, niin pääset viereisille kartoille.


METAR-TAF: